<?xml version="1.0" encoding="UTF-8" standalone="no" ?>
<gpx xmlns="http://www.topografix.com/GPX/1/1" xmlns:xsi="http://www.w3.org/2001/XMLSchema-instance" xsi:schemaLocation="http://www.topografix.com/GPX/1/1 http://www.topografix.com/GPX/1/1/gpx.xsd" version="1.1" creator="VisuGPX - https://www.visugpx.com">
  <metadata>
    <name>Sardaigne Corse</name>
    <desc><![CDATA[En octobre 2017 au départ de Portisco
6 membres d'équipage avec
Julien Bruno Frédéric Benjamin Sébastien 
embarqué sur Dufour 412]]></desc>
  </metadata>
  <trk>
    <name><![CDATA[Tracé actuel: 10 OCT 2017 09:38]]></name>
    <trkseg>
      <trkpt lat="41.23734" lon="9.19606">
        <ele>-0.82</ele>
        <time>2017-10-10T08:38:02Z</time>
      </trkpt>
      <trkpt lat="41.23723" lon="9.19591">
        <ele>19.36</ele>
        <time>2017-10-10T08:38:28Z</time>
      </trkpt>
      <trkpt lat="41.23744" lon="9.19597">
        <ele>0.62</ele>
        <time>2017-10-10T08:38:58Z</time>
      </trkpt>
      <trkpt lat="41.23744" lon="9.19601">
        <ele>0.14</ele>
        <time>2017-10-10T08:39:24Z</time>
      </trkpt>
      <trkpt lat="41.23744" lon="9.196">
        <ele>-1.3</ele>
        <time>2017-10-10T08:39:55Z</time>
      </trkpt>
      <trkpt lat="41.23746" lon="9.19599">
        <ele>-1.3</ele>
        <time>2017-10-10T08:40:32Z</time>
      </trkpt>
      <trkpt lat="41.23746" lon="9.19599">
        <ele>-0.82</ele>
        <time>2017-10-10T08:40:53Z</time>
      </trkpt>
      <trkpt lat="41.23747" lon="9.19597">
        <ele>0.14</ele>
        <time>2017-10-10T08:41:28Z</time>
      </trkpt>
      <trkpt lat="41.23747" lon="9.19597">
        <ele>0.62</ele>
        <time>2017-10-10T08:41:58Z</time>
      </trkpt>
      <trkpt lat="41.23747" lon="9.19596">
        <ele>2.54</ele>
        <time>2017-10-10T08:42:23Z</time>
      </trkpt>
      <trkpt lat="41.23747" lon="9.19596">
        <ele>3.02</ele>
        <time>2017-10-10T08:42:49Z</time>
      </trkpt>
      <trkpt lat="41.23747" lon="9.19597">
        <ele>3.5</ele>
        <time>2017-10-10T08:43:19Z</time>
      </trkpt>
      <trkpt lat="41.23747" lon="9.19597">
        <ele>3.98</ele>
        <time>2017-10-10T08:43:53Z</time>
      </trkpt>
      <trkpt lat="41.23747" lon="9.19597">
        <ele>3.98</ele>
        <time>2017-10-10T08:44:20Z</time>
      </trkpt>
      <trkpt lat="41.23755" lon="9.19603">
        <ele>4.94</ele>
        <time>2017-10-10T08:44:44Z</time>
      </trkpt>
      <trkpt lat="41.23772" lon="9.19607">
        <ele>3.5</ele>
        <time>2017-10-10T08:45:06Z</time>
      </trkpt>
      <trkpt lat="41.23788" lon="9.19583">
        <ele>3.5</ele>
        <time>2017-10-10T08:45:33Z</time>
      </trkpt>
      <trkpt lat="41.23794" lon="9.19573">
        <ele>3.5</ele>
        <time>2017-10-10T08:45:43Z</time>
      </trkpt>
      <trkpt lat="41.23813" lon="9.19542">
        <ele>3.02</ele>
        <time>2017-10-10T08:46:10Z</time>
      </trkpt>
      <trkpt lat="41.23837" lon="9.19513">
        <ele>3.02</ele>
        <time>2017-10-10T08:46:35Z</time>
      </trkpt>
      <trkpt lat="41.23865" lon="9.19497">
        <ele>3.02</ele>
        <time>2017-10-10T08:46:56Z</time>
      </trkpt>
      <trkpt lat="41.2391" lon="9.19504">
        <ele>2.54</ele>
        <time>2017-10-10T08:47:21Z</time>
      </trkpt>
      <trkpt lat="41.23958" lon="9.19521">
        <ele>3.02</ele>
        <time>2017-10-10T08:47:47Z</time>
      </trkpt>
      <trkpt lat="41.24002" lon="9.19534">
        <ele>2.54</ele>
        <time>2017-10-10T08:48:10Z</time>
      </trkpt>
      <trkpt lat="41.24052" lon="9.19555">
        <ele>3.02</ele>
        <time>2017-10-10T08:48:36Z</time>
      </trkpt>
      <trkpt lat="41.24096" lon="9.19578">
        <ele>3.02</ele>
        <time>2017-10-10T08:49:00Z</time>
      </trkpt>
      <trkpt lat="41.24139" lon="9.19597">
        <ele>3.5</ele>
        <time>2017-10-10T08:49:23Z</time>
      </trkpt>
      <trkpt lat="41.24181" lon="9.1961">
        <ele>3.5</ele>
        <time>2017-10-10T08:49:45Z</time>
      </trkpt>
      <trkpt lat="41.24231" lon="9.19625">
        <ele>3.5</ele>
        <time>2017-10-10T08:50:11Z</time>
      </trkpt>
      <trkpt lat="41.24274" lon="9.19643">
        <ele>2.54</ele>
        <time>2017-10-10T08:50:34Z</time>
      </trkpt>
      <trkpt lat="41.24322" lon="9.19652">
        <ele>2.54</ele>
        <time>2017-10-10T08:50:59Z</time>
      </trkpt>
      <trkpt lat="41.2436" lon="9.19659">
        <ele>1.58</ele>
        <time>2017-10-10T08:51:19Z</time>
      </trkpt>
      <trkpt lat="41.24404" lon="9.1967">
        <ele>2.06</ele>
        <time>2017-10-10T08:51:42Z</time>
      </trkpt>
      <trkpt lat="41.24448" lon="9.19681">
        <ele>2.54</ele>
        <time>2017-10-10T08:52:06Z</time>
      </trkpt>
      <trkpt lat="41.24486" lon="9.19692">
        <ele>3.02</ele>
        <time>2017-10-10T08:52:26Z</time>
      </trkpt>
      <trkpt lat="41.24528" lon="9.19697">
        <ele>3.5</ele>
        <time>2017-10-10T08:52:48Z</time>
      </trkpt>
      <trkpt lat="41.24569" lon="9.19708">
        <ele>3.5</ele>
        <time>2017-10-10T08:53:10Z</time>
      </trkpt>
      <trkpt lat="41.24613" lon="9.19721">
        <ele>3.98</ele>
        <time>2017-10-10T08:53:34Z</time>
      </trkpt>
      <trkpt lat="41.24656" lon="9.19718">
        <ele>3.02</ele>
        <time>2017-10-10T08:53:56Z</time>
      </trkpt>
      <trkpt lat="41.24698" lon="9.19726">
        <ele>2.54</ele>
        <time>2017-10-10T08:54:17Z</time>
      </trkpt>
      <trkpt lat="41.24736" lon="9.19736">
        <ele>3.02</ele>
        <time>2017-10-10T08:54:36Z</time>
      </trkpt>
      <trkpt lat="41.24775" lon="9.19744">
        <ele>3.02</ele>
        <time>2017-10-10T08:54:56Z</time>
      </trkpt>
      <trkpt lat="41.24815" lon="9.19753">
        <ele>3.02</ele>
        <time>2017-10-10T08:55:19Z</time>
      </trkpt>
      <trkpt lat="41.24846" lon="9.19761">
        <ele>3.02</ele>
        <time>2017-10-10T08:55:40Z</time>
      </trkpt>
      <trkpt lat="41.24875" lon="9.1977">
        <ele>3.02</ele>
        <time>2017-10-10T08:56:01Z</time>
      </trkpt>
      <trkpt lat="41.24899" lon="9.19782">
        <ele>3.02</ele>
        <time>2017-10-10T08:56:20Z</time>
      </trkpt>
      <trkpt lat="41.24919" lon="9.19794">
        <ele>3.02</ele>
        <time>2017-10-10T08:56:37Z</time>
      </trkpt>
      <trkpt lat="41.2494" lon="9.19803">
        <ele>3.5</ele>
        <time>2017-10-10T08:56:54Z</time>
      </trkpt>
      <trkpt lat="41.24946" lon="9.19805">
        <ele>3.5</ele>
        <time>2017-10-10T08:56:59Z</time>
      </trkpt>
      <trkpt lat="41.24966" lon="9.19815">
        <ele>3.5</ele>
        <time>2017-10-10T08:57:18Z</time>
      </trkpt>
      <trkpt lat="41.24983" lon="9.1982">
        <ele>3.02</ele>
        <time>2017-10-10T08:57:35Z</time>
      </trkpt>
      <trkpt lat="41.25001" lon="9.19825">
        <ele>2.54</ele>
        <time>2017-10-10T08:57:54Z</time>
      </trkpt>
      <trkpt lat="41.25019" lon="9.1983">
        <ele>2.54</ele>
        <time>2017-10-10T08:58:13Z</time>
      </trkpt>
      <trkpt lat="41.25036" lon="9.19833">
        <ele>3.02</ele>
        <time>2017-10-10T08:58:32Z</time>
      </trkpt>
      <trkpt lat="41.25048" lon="9.19837">
        <ele>3.02</ele>
        <time>2017-10-10T08:58:48Z</time>
      </trkpt>
      <trkpt lat="41.25062" lon="9.19841">
        <ele>1.58</ele>
        <time>2017-10-10T08:59:05Z</time>
      </trkpt>
      <trkpt lat="41.25073" lon="9.19845">
        <ele>1.58</ele>
        <time>2017-10-10T08:59:20Z</time>
      </trkpt>
      <trkpt lat="41.25086" lon="9.19851">
        <ele>1.58</ele>
        <time>2017-10-10T08:59:37Z</time>
      </trkpt>
      <trkpt lat="41.251" lon="9.19856">
        <ele>1.58</ele>
        <time>2017-10-10T08:59:55Z</time>
      </trkpt>
      <trkpt lat="41.25111" lon="9.19859">
        <ele>2.06</ele>
        <time>2017-10-10T09:00:10Z</time>
      </trkpt>
      <trkpt lat="41.25123" lon="9.19863">
        <ele>1.1</ele>
        <time>2017-10-10T09:00:25Z</time>
      </trkpt>
      <trkpt lat="41.25137" lon="9.19867">
        <ele>1.1</ele>
        <time>2017-10-10T09:00:43Z</time>
      </trkpt>
      <trkpt lat="41.25148" lon="9.19872">
        <ele>1.58</ele>
        <time>2017-10-10T09:00:58Z</time>
      </trkpt>
      <trkpt lat="41.25162" lon="9.19878">
        <ele>2.06</ele>
        <time>2017-10-10T09:01:16Z</time>
      </trkpt>
      <trkpt lat="41.25177" lon="9.19883">
        <ele>1.58</ele>
        <time>2017-10-10T09:01:33Z</time>
      </trkpt>
      <trkpt lat="41.25193" lon="9.1989">
        <ele>2.06</ele>
        <time>2017-10-10T09:01:52Z</time>
      </trkpt>
      <trkpt lat="41.25208" lon="9.19896">
        <ele>2.06</ele>
        <time>2017-10-10T09:02:11Z</time>
      </trkpt>
      <trkpt lat="41.25217" lon="9.199">
        <ele>1.58</ele>
        <time>2017-10-10T09:02:22Z</time>
      </trkpt>
      <trkpt lat="41.25232" lon="9.19907">
        <ele>2.06</ele>
        <time>2017-10-10T09:02:41Z</time>
      </trkpt>
      <trkpt lat="41.25246" lon="9.19911">
        <ele>2.54</ele>
        <time>2017-10-10T09:02:58Z</time>
      </trkpt>
      <trkpt lat="41.2526" lon="9.19918">
        <ele>3.02</ele>
        <time>2017-10-10T09:03:15Z</time>
      </trkpt>
      <trkpt lat="41.25275" lon="9.19925">
        <ele>3.02</ele>
        <time>2017-10-10T09:03:31Z</time>
      </trkpt>
      <trkpt lat="41.25278" lon="9.19926">
        <ele>3.5</ele>
        <time>2017-10-10T09:03:35Z</time>
      </trkpt>
      <trkpt lat="41.25283" lon="9.19928">
        <ele>3.5</ele>
        <time>2017-10-10T09:03:40Z</time>
      </trkpt>
      <trkpt lat="41.25299" lon="9.19935">
        <ele>3.02</ele>
        <time>2017-10-10T09:03:56Z</time>
      </trkpt>
      <trkpt lat="41.25316" lon="9.19944">
        <ele>2.06</ele>
        <time>2017-10-10T09:04:13Z</time>
      </trkpt>
      <trkpt lat="41.25338" lon="9.19953">
        <ele>3.02</ele>
        <time>2017-10-10T09:04:33Z</time>
      </trkpt>
      <trkpt lat="41.25364" lon="9.19962">
        <ele>3.02</ele>
        <time>2017-10-10T09:04:52Z</time>
      </trkpt>
      <trkpt lat="41.25385" lon="9.19969">
        <ele>2.06</ele>
        <time>2017-10-10T09:05:07Z</time>
      </trkpt>
      <trkpt lat="41.25405" lon="9.1999">
        <ele>1.58</ele>
        <time>2017-10-10T09:05:23Z</time>
      </trkpt>
      <trkpt lat="41.25424" lon="9.20012">
        <ele>2.06</ele>
        <time>2017-10-10T09:05:40Z</time>
      </trkpt>
      <trkpt lat="41.25441" lon="9.20028">
        <ele>1.58</ele>
        <time>2017-10-10T09:05:53Z</time>
      </trkpt>
      <trkpt lat="41.25446" lon="9.20032">
        <ele>1.1</ele>
        <time>2017-10-10T09:05:57Z</time>
      </trkpt>
      <trkpt lat="41.25459" lon="9.20044">
        <ele>1.1</ele>
        <time>2017-10-10T09:06:08Z</time>
      </trkpt>
      <trkpt lat="41.25467" lon="9.20053">
        <ele>1.1</ele>
        <time>2017-10-10T09:06:16Z</time>
      </trkpt>
      <trkpt lat="41.25473" lon="9.20062">
        <ele>1.58</ele>
        <time>2017-10-10T09:06:23Z</time>
      </trkpt>
      <trkpt lat="41.2548" lon="9.2007">
        <ele>1.58</ele>
        <time>2017-10-10T09:06:30Z</time>
      </trkpt>
      <trkpt lat="41.25495" lon="9.2009">
        <ele>1.58</ele>
        <time>2017-10-10T09:06:47Z</time>
      </trkpt>
      <trkpt lat="41.25519" lon="9.20106">
        <ele>1.58</ele>
        <time>2017-10-10T09:07:05Z</time>
      </trkpt>
      <trkpt lat="41.25544" lon="9.20118">
        <ele>1.58</ele>
        <time>2017-10-10T09:07:21Z</time>
      </trkpt>
      <trkpt lat="41.25572" lon="9.20148">
        <ele>1.1</ele>
        <time>2017-10-10T09:07:36Z</time>
      </trkpt>
      <trkpt lat="41.25603" lon="9.20183">
        <ele>1.1</ele>
        <time>2017-10-10T09:07:51Z</time>
      </trkpt>
      <trkpt lat="41.2563" lon="9.20222">
        <ele>1.58</ele>
        <time>2017-10-10T09:08:05Z</time>
      </trkpt>
      <trkpt lat="41.25657" lon="9.20261">
        <ele>1.58</ele>
        <time>2017-10-10T09:08:19Z</time>
      </trkpt>
      <trkpt lat="41.25696" lon="9.20292">
        <ele>1.58</ele>
        <time>2017-10-10T09:08:34Z</time>
      </trkpt>
      <trkpt lat="41.25734" lon="9.2034">
        <ele>2.06</ele>
        <time>2017-10-10T09:08:51Z</time>
      </trkpt>
      <trkpt lat="41.25763" lon="9.20386">
        <ele>2.54</ele>
        <time>2017-10-10T09:09:07Z</time>
      </trkpt>
      <trkpt lat="41.25779" lon="9.20432">
        <ele>2.54</ele>
        <time>2017-10-10T09:09:22Z</time>
      </trkpt>
      <trkpt lat="41.25791" lon="9.20475">
        <ele>2.06</ele>
        <time>2017-10-10T09:09:37Z</time>
      </trkpt>
      <trkpt lat="41.25804" lon="9.20514">
        <ele>2.06</ele>
        <time>2017-10-10T09:09:52Z</time>
      </trkpt>
      <trkpt lat="41.25828" lon="9.2055">
        <ele>2.06</ele>
        <time>2017-10-10T09:10:09Z</time>
      </trkpt>
      <trkpt lat="41.25857" lon="9.2058">
        <ele>2.06</ele>
        <time>2017-10-10T09:10:23Z</time>
      </trkpt>
      <trkpt lat="41.25875" lon="9.20615">
        <ele>2.54</ele>
        <time>2017-10-10T09:10:34Z</time>
      </trkpt>
      <trkpt lat="41.25897" lon="9.20646">
        <ele>2.06</ele>
        <time>2017-10-10T09:10:46Z</time>
      </trkpt>
      <trkpt lat="41.25927" lon="9.20679">
        <ele>2.06</ele>
        <time>2017-10-10T09:11:02Z</time>
      </trkpt>
      <trkpt lat="41.25949" lon="9.2071">
        <ele>1.58</ele>
        <time>2017-10-10T09:11:15Z</time>
      </trkpt>
      <trkpt lat="41.25972" lon="9.20749">
        <ele>2.06</ele>
        <time>2017-10-10T09:11:30Z</time>
      </trkpt>
      <trkpt lat="41.25998" lon="9.20781">
        <ele>1.1</ele>
        <time>2017-10-10T09:11:43Z</time>
      </trkpt>
      <trkpt lat="41.26028" lon="9.20813">
        <ele>1.58</ele>
        <time>2017-10-10T09:11:58Z</time>
      </trkpt>
      <trkpt lat="41.26061" lon="9.20845">
        <ele>1.58</ele>
        <time>2017-10-10T09:12:11Z</time>
      </trkpt>
      <trkpt lat="41.26105" lon="9.20885">
        <ele>1.58</ele>
        <time>2017-10-10T09:12:27Z</time>
      </trkpt>
      <trkpt lat="41.26138" lon="9.20917">
        <ele>1.58</ele>
        <time>2017-10-10T09:12:40Z</time>
      </trkpt>
      <trkpt lat="41.26173" lon="9.20952">
        <ele>1.58</ele>
        <time>2017-10-10T09:12:55Z</time>
      </trkpt>
      <trkpt lat="41.262" lon="9.20996">
        <ele>2.06</ele>
        <time>2017-10-10T09:13:11Z</time>
      </trkpt>
      <trkpt lat="41.26222" lon="9.21035">
        <ele>2.54</ele>
        <time>2017-10-10T09:13:26Z</time>
      </trkpt>
      <trkpt lat="41.2624" lon="9.21075">
        <ele>2.54</ele>
        <time>2017-10-10T09:13:43Z</time>
      </trkpt>
      <trkpt lat="41.26254" lon="9.21115">
        <ele>2.06</ele>
        <time>2017-10-10T09:14:00Z</time>
      </trkpt>
      <trkpt lat="41.26266" lon="9.21146">
        <ele>2.06</ele>
        <time>2017-10-10T09:14:14Z</time>
      </trkpt>
      <trkpt lat="41.26292" lon="9.21178">
        <ele>1.58</ele>
        <time>2017-10-10T09:14:31Z</time>
      </trkpt>
      <trkpt lat="41.26317" lon="9.2121">
        <ele>1.58</ele>
        <time>2017-10-10T09:14:47Z</time>
      </trkpt>
      <trkpt lat="41.26343" lon="9.21241">
        <ele>1.58</ele>
        <time>2017-10-10T09:15:03Z</time>
      </trkpt>
      <trkpt lat="41.26361" lon="9.2126">
        <ele>2.06</ele>
        <time>2017-10-10T09:15:14Z</time>
      </trkpt>
      <trkpt lat="41.2639" lon="9.21292">
        <ele>2.54</ele>
        <time>2017-10-10T09:15:29Z</time>
      </trkpt>
      <trkpt lat="41.26415" lon="9.21329">
        <ele>2.06</ele>
        <time>2017-10-10T09:15:44Z</time>
      </trkpt>
      <trkpt lat="41.26438" lon="9.21366">
        <ele>2.06</ele>
        <time>2017-10-10T09:15:59Z</time>
      </trkpt>
      <trkpt lat="41.26461" lon="9.21399">
        <ele>2.54</ele>
        <time>2017-10-10T09:16:13Z</time>
      </trkpt>
      <trkpt lat="41.26478" lon="9.21423">
        <ele>2.54</ele>
        <time>2017-10-10T09:16:24Z</time>
      </trkpt>
      <trkpt lat="41.26509" lon="9.21447">
        <ele>2.54</ele>
        <time>2017-10-10T09:16:38Z</time>
      </trkpt>
      <trkpt lat="41.26539" lon="9.21479">
        <ele>2.54</ele>
        <time>2017-10-10T09:16:52Z</time>
      </trkpt>
      <trkpt lat="41.26575" lon="9.21517">
        <ele>3.02</ele>
        <time>2017-10-10T09:17:07Z</time>
      </trkpt>
      <trkpt lat="41.26612" lon="9.21558">
        <ele>2.54</ele>
        <time>2017-10-10T09:17:22Z</time>
      </trkpt>
      <trkpt lat="41.26644" lon="9.21605">
        <ele>2.54</ele>
        <time>2017-10-10T09:17:38Z</time>
      </trkpt>
      <trkpt lat="41.26672" lon="9.2164">
        <ele>2.06</ele>
        <time>2017-10-10T09:17:51Z</time>
      </trkpt>
      <trkpt lat="41.26707" lon="9.21681">
        <ele>1.58</ele>
        <time>2017-10-10T09:18:06Z</time>
      </trkpt>
      <trkpt lat="41.26736" lon="9.21705">
        <ele>2.06</ele>
        <time>2017-10-10T09:18:17Z</time>
      </trkpt>
      <trkpt lat="41.26769" lon="9.21741">
        <ele>1.58</ele>
        <time>2017-10-10T09:18:30Z</time>
      </trkpt>
      <trkpt lat="41.2679" lon="9.21781">
        <ele>2.54</ele>
        <time>2017-10-10T09:18:43Z</time>
      </trkpt>
      <trkpt lat="41.2682" lon="9.2182">
        <ele>3.02</ele>
        <time>2017-10-10T09:18:59Z</time>
      </trkpt>
      <trkpt lat="41.26845" lon="9.21856">
        <ele>3.02</ele>
        <time>2017-10-10T09:19:13Z</time>
      </trkpt>
      <trkpt lat="41.26878" lon="9.21901">
        <ele>3.5</ele>
        <time>2017-10-10T09:19:30Z</time>
      </trkpt>
      <trkpt lat="41.26902" lon="9.2194">
        <ele>3.02</ele>
        <time>2017-10-10T09:19:44Z</time>
      </trkpt>
      <trkpt lat="41.26926" lon="9.21974">
        <ele>3.5</ele>
        <time>2017-10-10T09:19:57Z</time>
      </trkpt>
      <trkpt lat="41.26949" lon="9.22005">
        <ele>3.02</ele>
        <time>2017-10-10T09:20:09Z</time>
      </trkpt>
      <trkpt lat="41.26977" lon="9.22039">
        <ele>2.54</ele>
        <time>2017-10-10T09:20:23Z</time>
      </trkpt>
      <trkpt lat="41.26999" lon="9.22076">
        <ele>2.54</ele>
        <time>2017-10-10T09:20:37Z</time>
      </trkpt>
      <trkpt lat="41.2702" lon="9.22116">
        <ele>2.54</ele>
        <time>2017-10-10T09:20:52Z</time>
      </trkpt>
      <trkpt lat="41.27048" lon="9.22157">
        <ele>2.54</ele>
        <time>2017-10-10T09:21:08Z</time>
      </trkpt>
      <trkpt lat="41.27075" lon="9.22195">
        <ele>3.02</ele>
        <time>2017-10-10T09:21:22Z</time>
      </trkpt>
      <trkpt lat="41.27102" lon="9.22228">
        <ele>2.54</ele>
        <time>2017-10-10T09:21:35Z</time>
      </trkpt>
      <trkpt lat="41.27123" lon="9.22263">
        <ele>2.54</ele>
        <time>2017-10-10T09:21:47Z</time>
      </trkpt>
      <trkpt lat="41.27139" lon="9.22301">
        <ele>2.06</ele>
        <time>2017-10-10T09:22:00Z</time>
      </trkpt>
      <trkpt lat="41.27154" lon="9.22336">
        <ele>1.58</ele>
        <time>2017-10-10T09:22:13Z</time>
      </trkpt>
      <trkpt lat="41.27169" lon="9.22374">
        <ele>0.14</ele>
        <time>2017-10-10T09:22:27Z</time>
      </trkpt>
      <trkpt lat="41.27187" lon="9.224">
        <ele>1.1</ele>
        <time>2017-10-10T09:22:38Z</time>
      </trkpt>
      <trkpt lat="41.27218" lon="9.22429">
        <ele>1.58</ele>
        <time>2017-10-10T09:22:52Z</time>
      </trkpt>
      <trkpt lat="41.27253" lon="9.2246">
        <ele>2.06</ele>
        <time>2017-10-10T09:23:08Z</time>
      </trkpt>
      <trkpt lat="41.27278" lon="9.2249">
        <ele>2.54</ele>
        <time>2017-10-10T09:23:21Z</time>
      </trkpt>
      <trkpt lat="41.27297" lon="9.22532">
        <ele>1.1</ele>
        <time>2017-10-10T09:23:36Z</time>
      </trkpt>
      <trkpt lat="41.27311" lon="9.22565">
        <ele>0.62</ele>
        <time>2017-10-10T09:23:48Z</time>
      </trkpt>
      <trkpt lat="41.27334" lon="9.22612">
        <ele>1.1</ele>
        <time>2017-10-10T09:24:06Z</time>
      </trkpt>
      <trkpt lat="41.27356" lon="9.22641">
        <ele>1.1</ele>
        <time>2017-10-10T09:24:18Z</time>
      </trkpt>
      <trkpt lat="41.2738" lon="9.22668">
        <ele>1.58</ele>
        <time>2017-10-10T09:24:30Z</time>
      </trkpt>
      <trkpt lat="41.27408" lon="9.22708">
        <ele>2.06</ele>
        <time>2017-10-10T09:24:45Z</time>
      </trkpt>
      <trkpt lat="41.27427" lon="9.22749">
        <ele>1.58</ele>
        <time>2017-10-10T09:24:59Z</time>
      </trkpt>
      <trkpt lat="41.27449" lon="9.22779">
        <ele>2.06</ele>
        <time>2017-10-10T09:25:11Z</time>
      </trkpt>
      <trkpt lat="41.27471" lon="9.22813">
        <ele>2.54</ele>
        <time>2017-10-10T09:25:24Z</time>
      </trkpt>
      <trkpt lat="41.27495" lon="9.22847">
        <ele>2.54</ele>
        <time>2017-10-10T09:25:37Z</time>
      </trkpt>
      <trkpt lat="41.27519" lon="9.22878">
        <ele>2.54</ele>
        <time>2017-10-10T09:25:49Z</time>
      </trkpt>
      <trkpt lat="41.27542" lon="9.22918">
        <ele>1.58</ele>
        <time>2017-10-10T09:26:04Z</time>
      </trkpt>
      <trkpt lat="41.27566" lon="9.22958">
        <ele>2.06</ele>
        <time>2017-10-10T09:26:19Z</time>
      </trkpt>
      <trkpt lat="41.27598" lon="9.23001">
        <ele>1.58</ele>
        <time>2017-10-10T09:26:36Z</time>
      </trkpt>
      <trkpt lat="41.27624" lon="9.23045">
        <ele>1.58</ele>
        <time>2017-10-10T09:26:50Z</time>
      </trkpt>
      <trkpt lat="41.27657" lon="9.23099">
        <ele>1.58</ele>
        <time>2017-10-10T09:27:08Z</time>
      </trkpt>
      <trkpt lat="41.2768" lon="9.23148">
        <ele>2.06</ele>
        <time>2017-10-10T09:27:23Z</time>
      </trkpt>
      <trkpt lat="41.27698" lon="9.23188">
        <ele>1.58</ele>
        <time>2017-10-10T09:27:36Z</time>
      </trkpt>
      <trkpt lat="41.27724" lon="9.23239">
        <ele>0.62</ele>
        <time>2017-10-10T09:27:53Z</time>
      </trkpt>
      <trkpt lat="41.27751" lon="9.23296">
        <ele>1.1</ele>
        <time>2017-10-10T09:28:11Z</time>
      </trkpt>
      <trkpt lat="41.27774" lon="9.23347">
        <ele>1.58</ele>
        <time>2017-10-10T09:28:27Z</time>
      </trkpt>
      <trkpt lat="41.27794" lon="9.23383">
        <ele>1.58</ele>
        <time>2017-10-10T09:28:39Z</time>
      </trkpt>
      <trkpt lat="41.27821" lon="9.23444">
        <ele>1.58</ele>
        <time>2017-10-10T09:28:58Z</time>
      </trkpt>
      <trkpt lat="41.27841" lon="9.23486">
        <ele>1.1</ele>
        <time>2017-10-10T09:29:12Z</time>
      </trkpt>
      <trkpt lat="41.27859" lon="9.23524">
        <ele>1.58</ele>
        <time>2017-10-10T09:29:24Z</time>
      </trkpt>
      <trkpt lat="41.27876" lon="9.23559">
        <ele>1.58</ele>
        <time>2017-10-10T09:29:36Z</time>
      </trkpt>
      <trkpt lat="41.27897" lon="9.23603">
        <ele>1.58</ele>
        <time>2017-10-10T09:29:50Z</time>
      </trkpt>
      <trkpt lat="41.27917" lon="9.23644">
        <ele>1.1</ele>
        <time>2017-10-10T09:30:04Z</time>
      </trkpt>
      <trkpt lat="41.27934" lon="9.23679">
        <ele>1.58</ele>
        <time>2017-10-10T09:30:16Z</time>
      </trkpt>
      <trkpt lat="41.27955" lon="9.23725">
        <ele>1.1</ele>
        <time>2017-10-10T09:30:32Z</time>
      </trkpt>
      <trkpt lat="41.27972" lon="9.23763">
        <ele>1.58</ele>
        <time>2017-10-10T09:30:46Z</time>
      </trkpt>
      <trkpt lat="41.27991" lon="9.23797">
        <ele>1.58</ele>
        <time>2017-10-10T09:30:58Z</time>
      </trkpt>
      <trkpt lat="41.28012" lon="9.23841">
        <ele>1.58</ele>
        <time>2017-10-10T09:31:13Z</time>
      </trkpt>
      <trkpt lat="41.28032" lon="9.23884">
        <ele>1.58</ele>
        <time>2017-10-10T09:31:27Z</time>
      </trkpt>
      <trkpt lat="41.28056" lon="9.23932">
        <ele>1.1</ele>
        <time>2017-10-10T09:31:43Z</time>
      </trkpt>
      <trkpt lat="41.28071" lon="9.23968">
        <ele>2.06</ele>
        <time>2017-10-10T09:31:55Z</time>
      </trkpt>
      <trkpt lat="41.2809" lon="9.24006">
        <ele>2.54</ele>
        <time>2017-10-10T09:32:08Z</time>
      </trkpt>
      <trkpt lat="41.28108" lon="9.24046">
        <ele>2.54</ele>
        <time>2017-10-10T09:32:21Z</time>
      </trkpt>
      <trkpt lat="41.28128" lon="9.2409">
        <ele>1.58</ele>
        <time>2017-10-10T09:32:35Z</time>
      </trkpt>
      <trkpt lat="41.28154" lon="9.24142">
        <ele>1.1</ele>
        <time>2017-10-10T09:32:51Z</time>
      </trkpt>
      <trkpt lat="41.2817" lon="9.24178">
        <ele>1.58</ele>
        <time>2017-10-10T09:33:02Z</time>
      </trkpt>
      <trkpt lat="41.28193" lon="9.24227">
        <ele>2.06</ele>
        <time>2017-10-10T09:33:17Z</time>
      </trkpt>
      <trkpt lat="41.28212" lon="9.24269">
        <ele>2.06</ele>
        <time>2017-10-10T09:33:31Z</time>
      </trkpt>
      <trkpt lat="41.28232" lon="9.24314">
        <ele>2.54</ele>
        <time>2017-10-10T09:33:45Z</time>
      </trkpt>
      <trkpt lat="41.28251" lon="9.24356">
        <ele>1.58</ele>
        <time>2017-10-10T09:33:58Z</time>
      </trkpt>
      <trkpt lat="41.28269" lon="9.24395">
        <ele>1.58</ele>
        <time>2017-10-10T09:34:11Z</time>
      </trkpt>
      <trkpt lat="41.28288" lon="9.24436">
        <ele>2.06</ele>
        <time>2017-10-10T09:34:25Z</time>
      </trkpt>
      <trkpt lat="41.28305" lon="9.24475">
        <ele>1.58</ele>
        <time>2017-10-10T09:34:39Z</time>
      </trkpt>
      <trkpt lat="41.28321" lon="9.24513">
        <ele>1.58</ele>
        <time>2017-10-10T09:34:52Z</time>
      </trkpt>
      <trkpt lat="41.28341" lon="9.24556">
        <ele>1.1</ele>
        <time>2017-10-10T09:35:08Z</time>
      </trkpt>
      <trkpt lat="41.2836" lon="9.24595">
        <ele>0.62</ele>
        <time>2017-10-10T09:35:22Z</time>
      </trkpt>
      <trkpt lat="41.28377" lon="9.24637">
        <ele>0.62</ele>
        <time>2017-10-10T09:35:36Z</time>
      </trkpt>
      <trkpt lat="41.28404" lon="9.24688">
        <ele>0.62</ele>
        <time>2017-10-10T09:35:53Z</time>
      </trkpt>
      <trkpt lat="41.28435" lon="9.24731">
        <ele>1.58</ele>
        <time>2017-10-10T09:36:08Z</time>
      </trkpt>
      <trkpt lat="41.28464" lon="9.24769">
        <ele>1.58</ele>
        <time>2017-10-10T09:36:22Z</time>
      </trkpt>
      <trkpt lat="41.28493" lon="9.24804">
        <ele>1.58</ele>
        <time>2017-10-10T09:36:36Z</time>
      </trkpt>
      <trkpt lat="41.28528" lon="9.24841">
        <ele>2.54</ele>
        <time>2017-10-10T09:36:51Z</time>
      </trkpt>
      <trkpt lat="41.28564" lon="9.24878">
        <ele>3.02</ele>
        <time>2017-10-10T09:37:07Z</time>
      </trkpt>
      <trkpt lat="41.28596" lon="9.24911">
        <ele>3.02</ele>
        <time>2017-10-10T09:37:21Z</time>
      </trkpt>
      <trkpt lat="41.28622" lon="9.24944">
        <ele>2.54</ele>
        <time>2017-10-10T09:37:34Z</time>
      </trkpt>
      <trkpt lat="41.28646" lon="9.24987">
        <ele>2.54</ele>
        <time>2017-10-10T09:37:48Z</time>
      </trkpt>
      <trkpt lat="41.28675" lon="9.25036">
        <ele>1.58</ele>
        <time>2017-10-10T09:38:04Z</time>
      </trkpt>
      <trkpt lat="41.28703" lon="9.25081">
        <ele>1.1</ele>
        <time>2017-10-10T09:38:19Z</time>
      </trkpt>
      <trkpt lat="41.28731" lon="9.25117">
        <ele>1.58</ele>
        <time>2017-10-10T09:38:33Z</time>
      </trkpt>
      <trkpt lat="41.28765" lon="9.2516">
        <ele>1.58</ele>
        <time>2017-10-10T09:38:50Z</time>
      </trkpt>
      <trkpt lat="41.28793" lon="9.25194">
        <ele>2.54</ele>
        <time>2017-10-10T09:39:04Z</time>
      </trkpt>
      <trkpt lat="41.28826" lon="9.2523">
        <ele>2.54</ele>
        <time>2017-10-10T09:39:19Z</time>
      </trkpt>
      <trkpt lat="41.28862" lon="9.25264">
        <ele>2.54</ele>
        <time>2017-10-10T09:39:34Z</time>
      </trkpt>
      <trkpt lat="41.28894" lon="9.25294">
        <ele>3.5</ele>
        <time>2017-10-10T09:39:46Z</time>
      </trkpt>
      <trkpt lat="41.28937" lon="9.25332">
        <ele>3.5</ele>
        <time>2017-10-10T09:40:02Z</time>
      </trkpt>
      <trkpt lat="41.28971" lon="9.25362">
        <ele>3.5</ele>
        <time>2017-10-10T09:40:16Z</time>
      </trkpt>
      <trkpt lat="41.29009" lon="9.25386">
        <ele>3.5</ele>
        <time>2017-10-10T09:40:30Z</time>
      </trkpt>
      <trkpt lat="41.29051" lon="9.2541">
        <ele>3.02</ele>
        <time>2017-10-10T09:40:44Z</time>
      </trkpt>
      <trkpt lat="41.29098" lon="9.25447">
        <ele>3.02</ele>
        <time>2017-10-10T09:41:00Z</time>
      </trkpt>
      <trkpt lat="41.29139" lon="9.25481">
        <ele>2.54</ele>
        <time>2017-10-10T09:41:15Z</time>
      </trkpt>
      <trkpt lat="41.29177" lon="9.25512">
        <ele>3.02</ele>
        <time>2017-10-10T09:41:29Z</time>
      </trkpt>
      <trkpt lat="41.29214" lon="9.25545">
        <ele>2.54</ele>
        <time>2017-10-10T09:41:43Z</time>
      </trkpt>
      <trkpt lat="41.29249" lon="9.25572">
        <ele>2.06</ele>
        <time>2017-10-10T09:41:56Z</time>
      </trkpt>
      <trkpt lat="41.29284" lon="9.25602">
        <ele>3.02</ele>
        <time>2017-10-10T09:42:10Z</time>
      </trkpt>
      <trkpt lat="41.29321" lon="9.25641">
        <ele>1.58</ele>
        <time>2017-10-10T09:42:27Z</time>
      </trkpt>
      <trkpt lat="41.29349" lon="9.25666">
        <ele>2.54</ele>
        <time>2017-10-10T09:42:39Z</time>
      </trkpt>
      <trkpt lat="41.29389" lon="9.25697">
        <ele>2.06</ele>
        <time>2017-10-10T09:42:54Z</time>
      </trkpt>
      <trkpt lat="41.2943" lon="9.25732">
        <ele>2.54</ele>
        <time>2017-10-10T09:43:09Z</time>
      </trkpt>
      <trkpt lat="41.29473" lon="9.25767">
        <ele>2.54</ele>
        <time>2017-10-10T09:43:25Z</time>
      </trkpt>
      <trkpt lat="41.29503" lon="9.25793">
        <ele>3.5</ele>
        <time>2017-10-10T09:43:36Z</time>
      </trkpt>
      <trkpt lat="41.29538" lon="9.25824">
        <ele>3.5</ele>
        <time>2017-10-10T09:43:49Z</time>
      </trkpt>
      <trkpt lat="41.29579" lon="9.2586">
        <ele>2.54</ele>
        <time>2017-10-10T09:44:04Z</time>
      </trkpt>
      <trkpt lat="41.29619" lon="9.25891">
        <ele>2.54</ele>
        <time>2017-10-10T09:44:18Z</time>
      </trkpt>
      <trkpt lat="41.29663" lon="9.25931">
        <ele>2.06</ele>
        <time>2017-10-10T09:44:34Z</time>
      </trkpt>
      <trkpt lat="41.29691" lon="9.25958">
        <ele>1.58</ele>
        <time>2017-10-10T09:44:45Z</time>
      </trkpt>
      <trkpt lat="41.29728" lon="9.25988">
        <ele>2.06</ele>
        <time>2017-10-10T09:44:58Z</time>
      </trkpt>
      <trkpt lat="41.29769" lon="9.26025">
        <ele>1.58</ele>
        <time>2017-10-10T09:45:13Z</time>
      </trkpt>
      <trkpt lat="41.29816" lon="9.26066">
        <ele>1.58</ele>
        <time>2017-10-10T09:45:30Z</time>
      </trkpt>
      <trkpt lat="41.29849" lon="9.26102">
        <ele>1.58</ele>
        <time>2017-10-10T09:45:44Z</time>
      </trkpt>
      <trkpt lat="41.29884" lon="9.26128">
        <ele>2.06</ele>
        <time>2017-10-10T09:45:57Z</time>
      </trkpt>
      <trkpt lat="41.2993" lon="9.26168">
        <ele>2.06</ele>
        <time>2017-10-10T09:46:14Z</time>
      </trkpt>
      <trkpt lat="41.29961" lon="9.2619">
        <ele>2.54</ele>
        <time>2017-10-10T09:46:25Z</time>
      </trkpt>
      <trkpt lat="41.29997" lon="9.2622">
        <ele>2.06</ele>
        <time>2017-10-10T09:46:38Z</time>
      </trkpt>
      <trkpt lat="41.30032" lon="9.26251">
        <ele>2.06</ele>
        <time>2017-10-10T09:46:52Z</time>
      </trkpt>
      <trkpt lat="41.30069" lon="9.26286">
        <ele>2.06</ele>
        <time>2017-10-10T09:47:08Z</time>
      </trkpt>
      <trkpt lat="41.301" lon="9.26318">
        <ele>1.1</ele>
        <time>2017-10-10T09:47:22Z</time>
      </trkpt>
      <trkpt lat="41.3014" lon="9.26352">
        <ele>1.58</ele>
        <time>2017-10-10T09:47:39Z</time>
      </trkpt>
      <trkpt lat="41.3018" lon="9.26385">
        <ele>1.58</ele>
        <time>2017-10-10T09:47:55Z</time>
      </trkpt>
      <trkpt lat="41.30221" lon="9.26418">
        <ele>1.58</ele>
        <time>2017-10-10T09:48:11Z</time>
      </trkpt>
      <trkpt lat="41.30255" lon="9.26447">
        <ele>1.58</ele>
        <time>2017-10-10T09:48:24Z</time>
      </trkpt>
      <trkpt lat="41.30294" lon="9.2648">
        <ele>1.1</ele>
        <time>2017-10-10T09:48:38Z</time>
      </trkpt>
      <trkpt lat="41.3033" lon="9.2651">
        <ele>1.58</ele>
        <time>2017-10-10T09:48:51Z</time>
      </trkpt>
      <trkpt lat="41.30377" lon="9.2655">
        <ele>1.58</ele>
        <time>2017-10-10T09:49:08Z</time>
      </trkpt>
      <trkpt lat="41.30422" lon="9.26587">
        <ele>1.58</ele>
        <time>2017-10-10T09:49:24Z</time>
      </trkpt>
      <trkpt lat="41.3046" lon="9.26621">
        <ele>2.06</ele>
        <time>2017-10-10T09:49:38Z</time>
      </trkpt>
      <trkpt lat="41.30499" lon="9.26653">
        <ele>2.06</ele>
        <time>2017-10-10T09:49:52Z</time>
      </trkpt>
      <trkpt lat="41.30542" lon="9.26689">
        <ele>1.58</ele>
        <time>2017-10-10T09:50:07Z</time>
      </trkpt>
      <trkpt lat="41.30581" lon="9.26722">
        <ele>1.58</ele>
        <time>2017-10-10T09:50:21Z</time>
      </trkpt>
      <trkpt lat="41.30625" lon="9.26756">
        <ele>1.58</ele>
        <time>2017-10-10T09:50:37Z</time>
      </trkpt>
      <trkpt lat="41.30662" lon="9.26789">
        <ele>1.58</ele>
        <time>2017-10-10T09:50:51Z</time>
      </trkpt>
      <trkpt lat="41.30706" lon="9.26824">
        <ele>1.58</ele>
        <time>2017-10-10T09:51:07Z</time>
      </trkpt>
      <trkpt lat="41.30745" lon="9.26855">
        <ele>1.58</ele>
        <time>2017-10-10T09:51:21Z</time>
      </trkpt>
      <trkpt lat="41.30782" lon="9.26887">
        <ele>2.06</ele>
        <time>2017-10-10T09:51:35Z</time>
      </trkpt>
      <trkpt lat="41.30818" lon="9.26919">
        <ele>1.58</ele>
        <time>2017-10-10T09:51:49Z</time>
      </trkpt>
      <trkpt lat="41.30854" lon="9.26947">
        <ele>2.06</ele>
        <time>2017-10-10T09:52:03Z</time>
      </trkpt>
      <trkpt lat="41.3089" lon="9.26974">
        <ele>2.54</ele>
        <time>2017-10-10T09:52:17Z</time>
      </trkpt>
      <trkpt lat="41.30931" lon="9.27012">
        <ele>2.54</ele>
        <time>2017-10-10T09:52:33Z</time>
      </trkpt>
      <trkpt lat="41.30966" lon="9.2704">
        <ele>2.54</ele>
        <time>2017-10-10T09:52:47Z</time>
      </trkpt>
      <trkpt lat="41.31011" lon="9.27077">
        <ele>2.54</ele>
        <time>2017-10-10T09:53:04Z</time>
      </trkpt>
      <trkpt lat="41.31053" lon="9.27111">
        <ele>2.06</ele>
        <time>2017-10-10T09:53:19Z</time>
      </trkpt>
      <trkpt lat="41.31102" lon="9.27153">
        <ele>2.06</ele>
        <time>2017-10-10T09:53:37Z</time>
      </trkpt>
      <trkpt lat="41.31137" lon="9.27182">
        <ele>2.54</ele>
        <time>2017-10-10T09:53:50Z</time>
      </trkpt>
      <trkpt lat="41.31178" lon="9.27219">
        <ele>2.06</ele>
        <time>2017-10-10T09:54:06Z</time>
      </trkpt>
      <trkpt lat="41.31214" lon="9.27247">
        <ele>1.58</ele>
        <time>2017-10-10T09:54:19Z</time>
      </trkpt>
      <trkpt lat="41.31259" lon="9.27279">
        <ele>1.58</ele>
        <time>2017-10-10T09:54:34Z</time>
      </trkpt>
      <trkpt lat="41.31307" lon="9.27317">
        <ele>1.58</ele>
        <time>2017-10-10T09:54:51Z</time>
      </trkpt>
      <trkpt lat="41.31352" lon="9.27353">
        <ele>1.58</ele>
        <time>2017-10-10T09:55:07Z</time>
      </trkpt>
      <trkpt lat="41.31396" lon="9.27393">
        <ele>2.06</ele>
        <time>2017-10-10T09:55:23Z</time>
      </trkpt>
      <trkpt lat="41.31427" lon="9.27419">
        <ele>2.06</ele>
        <time>2017-10-10T09:55:34Z</time>
      </trkpt>
      <trkpt lat="41.31462" lon="9.27445">
        <ele>2.54</ele>
        <time>2017-10-10T09:55:46Z</time>
      </trkpt>
      <trkpt lat="41.31499" lon="9.27476">
        <ele>2.54</ele>
        <time>2017-10-10T09:56:00Z</time>
      </trkpt>
      <trkpt lat="41.31543" lon="9.27507">
        <ele>2.54</ele>
        <time>2017-10-10T09:56:15Z</time>
      </trkpt>
      <trkpt lat="41.31582" lon="9.27537">
        <ele>2.54</ele>
        <time>2017-10-10T09:56:28Z</time>
      </trkpt>
      <trkpt lat="41.31624" lon="9.27571">
        <ele>3.02</ele>
        <time>2017-10-10T09:56:43Z</time>
      </trkpt>
      <trkpt lat="41.31665" lon="9.27606">
        <ele>3.02</ele>
        <time>2017-10-10T09:56:59Z</time>
      </trkpt>
      <trkpt lat="41.31708" lon="9.27639">
        <ele>2.54</ele>
        <time>2017-10-10T09:57:14Z</time>
      </trkpt>
      <trkpt lat="41.31751" lon="9.27671">
        <ele>3.02</ele>
        <time>2017-10-10T09:57:28Z</time>
      </trkpt>
      <trkpt lat="41.31797" lon="9.27706">
        <ele>3.02</ele>
        <time>2017-10-10T09:57:44Z</time>
      </trkpt>
      <trkpt lat="41.31839" lon="9.27741">
        <ele>2.54</ele>
        <time>2017-10-10T09:57:59Z</time>
      </trkpt>
      <trkpt lat="41.3188" lon="9.27773">
        <ele>3.02</ele>
        <time>2017-10-10T09:58:14Z</time>
      </trkpt>
      <trkpt lat="41.31913" lon="9.278">
        <ele>2.54</ele>
        <time>2017-10-10T09:58:26Z</time>
      </trkpt>
      <trkpt lat="41.31952" lon="9.27833">
        <ele>2.54</ele>
        <time>2017-10-10T09:58:40Z</time>
      </trkpt>
      <trkpt lat="41.31988" lon="9.27867">
        <ele>2.54</ele>
        <time>2017-10-10T09:58:55Z</time>
      </trkpt>
      <trkpt lat="41.32015" lon="9.2789">
        <ele>2.54</ele>
        <time>2017-10-10T09:59:09Z</time>
      </trkpt>
      <trkpt lat="41.32036" lon="9.27911">
        <ele>2.06</ele>
        <time>2017-10-10T09:59:22Z</time>
      </trkpt>
      <trkpt lat="41.32043" lon="9.27919">
        <ele>2.06</ele>
        <time>2017-10-10T09:59:27Z</time>
      </trkpt>
      <trkpt lat="41.32066" lon="9.2794">
        <ele>2.54</ele>
        <time>2017-10-10T09:59:42Z</time>
      </trkpt>
      <trkpt lat="41.32078" lon="9.27955">
        <ele>2.06</ele>
        <time>2017-10-10T09:59:51Z</time>
      </trkpt>
      <trkpt lat="41.32084" lon="9.27961">
        <ele>1.58</ele>
        <time>2017-10-10T09:59:55Z</time>
      </trkpt>
      <trkpt lat="41.3211" lon="9.27982">
        <ele>1.1</ele>
        <time>2017-10-10T10:00:14Z</time>
      </trkpt>
      <trkpt lat="41.3213" lon="9.27999">
        <ele>1.1</ele>
        <time>2017-10-10T10:00:30Z</time>
      </trkpt>
      <trkpt lat="41.32131" lon="9.28">
        <ele>1.1</ele>
        <time>2017-10-10T10:00:31Z</time>
      </trkpt>
      <trkpt lat="41.32146" lon="9.28014">
        <ele>0.62</ele>
        <time>2017-10-10T10:00:44Z</time>
      </trkpt>
      <trkpt lat="41.32164" lon="9.2803">
        <ele>1.1</ele>
        <time>2017-10-10T10:00:59Z</time>
      </trkpt>
      <trkpt lat="41.32179" lon="9.28043">
        <ele>1.1</ele>
        <time>2017-10-10T10:01:12Z</time>
      </trkpt>
      <trkpt lat="41.32189" lon="9.28053">
        <ele>0.62</ele>
        <time>2017-10-10T10:01:20Z</time>
      </trkpt>
      <trkpt lat="41.32191" lon="9.28055">
        <ele>0.62</ele>
        <time>2017-10-10T10:01:22Z</time>
      </trkpt>
      <trkpt lat="41.32198" lon="9.28061">
        <ele>1.1</ele>
        <time>2017-10-10T10:01:27Z</time>
      </trkpt>
      <trkpt lat="41.32221" lon="9.28083">
        <ele>0.62</ele>
        <time>2017-10-10T10:01:43Z</time>
      </trkpt>
      <trkpt lat="41.32245" lon="9.28107">
        <ele>0.14</ele>
        <time>2017-10-10T10:01:58Z</time>
      </trkpt>
      <trkpt lat="41.32272" lon="9.28124">
        <ele>0.62</ele>
        <time>2017-10-10T10:02:12Z</time>
      </trkpt>
      <trkpt lat="41.32282" lon="9.28126">
        <ele>0.62</ele>
        <time>2017-10-10T10:02:17Z</time>
      </trkpt>
      <trkpt lat="41.3229" lon="9.2813">
        <ele>0.62</ele>
        <time>2017-10-10T10:02:21Z</time>
      </trkpt>
      <trkpt lat="41.32333" lon="9.2814">
        <ele>0.62</ele>
        <time>2017-10-10T10:02:40Z</time>
      </trkpt>
      <trkpt lat="41.32368" lon="9.2814">
        <ele>2.06</ele>
        <time>2017-10-10T10:02:55Z</time>
      </trkpt>
      <trkpt lat="41.32408" lon="9.28134">
        <ele>2.06</ele>
        <time>2017-10-10T10:03:12Z</time>
      </trkpt>
      <trkpt lat="41.32448" lon="9.28121">
        <ele>0.62</ele>
        <time>2017-10-10T10:03:30Z</time>
      </trkpt>
      <trkpt lat="41.32481" lon="9.28098">
        <ele>1.58</ele>
        <time>2017-10-10T10:03:47Z</time>
      </trkpt>
      <trkpt lat="41.32511" lon="9.28051">
        <ele>2.06</ele>
        <time>2017-10-10T10:04:06Z</time>
      </trkpt>
      <trkpt lat="41.32525" lon="9.28008">
        <ele>2.06</ele>
        <time>2017-10-10T10:04:24Z</time>
      </trkpt>
      <trkpt lat="41.32552" lon="9.27958">
        <ele>2.06</ele>
        <time>2017-10-10T10:04:44Z</time>
      </trkpt>
      <trkpt lat="41.32584" lon="9.27907">
        <ele>3.5</ele>
        <time>2017-10-10T10:05:04Z</time>
      </trkpt>
      <trkpt lat="41.32608" lon="9.27871">
        <ele>3.02</ele>
        <time>2017-10-10T10:05:18Z</time>
      </trkpt>
      <trkpt lat="41.32639" lon="9.27829">
        <ele>2.54</ele>
        <time>2017-10-10T10:05:35Z</time>
      </trkpt>
      <trkpt lat="41.32667" lon="9.2779">
        <ele>2.54</ele>
        <time>2017-10-10T10:05:51Z</time>
      </trkpt>
      <trkpt lat="41.32694" lon="9.27751">
        <ele>2.54</ele>
        <time>2017-10-10T10:06:06Z</time>
      </trkpt>
      <trkpt lat="41.32724" lon="9.27707">
        <ele>2.54</ele>
        <time>2017-10-10T10:06:23Z</time>
      </trkpt>
      <trkpt lat="41.3275" lon="9.27667">
        <ele>1.58</ele>
        <time>2017-10-10T10:06:38Z</time>
      </trkpt>
      <trkpt lat="41.32779" lon="9.27618">
        <ele>-0.34</ele>
        <time>2017-10-10T10:06:56Z</time>
      </trkpt>
      <trkpt lat="41.32813" lon="9.27566">
        <ele>0.14</ele>
        <time>2017-10-10T10:07:16Z</time>
      </trkpt>
      <trkpt lat="41.32843" lon="9.27516">
        <ele>0.62</ele>
        <time>2017-10-10T10:07:35Z</time>
      </trkpt>
      <trkpt lat="41.32874" lon="9.27461">
        <ele>0.62</ele>
        <time>2017-10-10T10:07:55Z</time>
      </trkpt>
      <trkpt lat="41.32915" lon="9.2739">
        <ele>1.1</ele>
        <time>2017-10-10T10:08:20Z</time>
      </trkpt>
      <trkpt lat="41.32948" lon="9.27328">
        <ele>1.58</ele>
        <time>2017-10-10T10:08:41Z</time>
      </trkpt>
      <trkpt lat="41.32985" lon="9.27269">
        <ele>1.1</ele>
        <time>2017-10-10T10:09:03Z</time>
      </trkpt>
      <trkpt lat="41.3302" lon="9.27207">
        <ele>1.1</ele>
        <time>2017-10-10T10:09:25Z</time>
      </trkpt>
      <trkpt lat="41.33057" lon="9.27153">
        <ele>1.1</ele>
        <time>2017-10-10T10:09:46Z</time>
      </trkpt>
      <trkpt lat="41.33087" lon="9.27115">
        <ele>2.06</ele>
        <time>2017-10-10T10:10:03Z</time>
      </trkpt>
      <trkpt lat="41.33116" lon="9.27073">
        <ele>2.06</ele>
        <time>2017-10-10T10:10:20Z</time>
      </trkpt>
      <trkpt lat="41.33147" lon="9.27028">
        <ele>2.06</ele>
        <time>2017-10-10T10:10:38Z</time>
      </trkpt>
      <trkpt lat="41.33177" lon="9.26987">
        <ele>2.06</ele>
        <time>2017-10-10T10:10:55Z</time>
      </trkpt>
      <trkpt lat="41.33204" lon="9.26945">
        <ele>1.58</ele>
        <time>2017-10-10T10:11:11Z</time>
      </trkpt>
      <trkpt lat="41.3323" lon="9.26901">
        <ele>1.58</ele>
        <time>2017-10-10T10:11:27Z</time>
      </trkpt>
      <trkpt lat="41.33259" lon="9.26852">
        <ele>1.1</ele>
        <time>2017-10-10T10:11:44Z</time>
      </trkpt>
      <trkpt lat="41.33282" lon="9.26807">
        <ele>1.58</ele>
        <time>2017-10-10T10:11:59Z</time>
      </trkpt>
      <trkpt lat="41.33309" lon="9.26769">
        <ele>1.58</ele>
        <time>2017-10-10T10:12:14Z</time>
      </trkpt>
      <trkpt lat="41.33337" lon="9.26728">
        <ele>2.06</ele>
        <time>2017-10-10T10:12:29Z</time>
      </trkpt>
      <trkpt lat="41.33365" lon="9.26685">
        <ele>2.54</ele>
        <time>2017-10-10T10:12:45Z</time>
      </trkpt>
      <trkpt lat="41.33392" lon="9.26634">
        <ele>2.06</ele>
        <time>2017-10-10T10:13:04Z</time>
      </trkpt>
      <trkpt lat="41.33385" lon="9.26617">
        <ele>1.58</ele>
        <time>2017-10-10T10:13:13Z</time>
      </trkpt>
      <trkpt lat="41.33365" lon="9.26606">
        <ele>1.58</ele>
        <time>2017-10-10T10:13:30Z</time>
      </trkpt>
      <trkpt lat="41.33344" lon="9.26595">
        <ele>1.1</ele>
        <time>2017-10-10T10:13:47Z</time>
      </trkpt>
      <trkpt lat="41.33323" lon="9.26575">
        <ele>1.58</ele>
        <time>2017-10-10T10:14:02Z</time>
      </trkpt>
      <trkpt lat="41.33299" lon="9.26547">
        <ele>2.06</ele>
        <time>2017-10-10T10:14:19Z</time>
      </trkpt>
      <trkpt lat="41.33268" lon="9.26519">
        <ele>2.06</ele>
        <time>2017-10-10T10:14:40Z</time>
      </trkpt>
      <trkpt lat="41.33238" lon="9.26498">
        <ele>1.1</ele>
        <time>2017-10-10T10:14:56Z</time>
      </trkpt>
      <trkpt lat="41.3321" lon="9.26477">
        <ele>1.58</ele>
        <time>2017-10-10T10:15:11Z</time>
      </trkpt>
      <trkpt lat="41.33184" lon="9.26458">
        <ele>1.58</ele>
        <time>2017-10-10T10:15:24Z</time>
      </trkpt>
      <trkpt lat="41.3315" lon="9.26434">
        <ele>2.06</ele>
        <time>2017-10-10T10:15:39Z</time>
      </trkpt>
      <trkpt lat="41.33121" lon="9.26412">
        <ele>1.58</ele>
        <time>2017-10-10T10:15:52Z</time>
      </trkpt>
      <trkpt lat="41.33083" lon="9.26387">
        <ele>0.62</ele>
        <time>2017-10-10T10:16:09Z</time>
      </trkpt>
      <trkpt lat="41.33052" lon="9.26367">
        <ele>0.62</ele>
        <time>2017-10-10T10:16:23Z</time>
      </trkpt>
      <trkpt lat="41.33019" lon="9.26345">
        <ele>0.14</ele>
        <time>2017-10-10T10:16:38Z</time>
      </trkpt>
      <trkpt lat="41.32982" lon="9.26321">
        <ele>0.14</ele>
        <time>2017-10-10T10:16:55Z</time>
      </trkpt>
      <trkpt lat="41.32953" lon="9.26304">
        <ele>0.14</ele>
        <time>2017-10-10T10:17:09Z</time>
      </trkpt>
      <trkpt lat="41.32927" lon="9.26289">
        <ele>0.14</ele>
        <time>2017-10-10T10:17:22Z</time>
      </trkpt>
      <trkpt lat="41.32898" lon="9.26271">
        <ele>0.14</ele>
        <time>2017-10-10T10:17:36Z</time>
      </trkpt>
      <trkpt lat="41.32862" lon="9.26248">
        <ele>0.14</ele>
        <time>2017-10-10T10:17:53Z</time>
      </trkpt>
      <trkpt lat="41.32822" lon="9.26219">
        <ele>0.62</ele>
        <time>2017-10-10T10:18:11Z</time>
      </trkpt>
      <trkpt lat="41.32793" lon="9.26202">
        <ele>1.1</ele>
        <time>2017-10-10T10:18:24Z</time>
      </trkpt>
      <trkpt lat="41.32763" lon="9.26182">
        <ele>1.58</ele>
        <time>2017-10-10T10:18:38Z</time>
      </trkpt>
      <trkpt lat="41.3273" lon="9.26157">
        <ele>1.58</ele>
        <time>2017-10-10T10:18:53Z</time>
      </trkpt>
      <trkpt lat="41.32698" lon="9.26135">
        <ele>1.58</ele>
        <time>2017-10-10T10:19:07Z</time>
      </trkpt>
      <trkpt lat="41.3266" lon="9.26106">
        <ele>1.58</ele>
        <time>2017-10-10T10:19:23Z</time>
      </trkpt>
      <trkpt lat="41.32622" lon="9.26077">
        <ele>2.06</ele>
        <time>2017-10-10T10:19:39Z</time>
      </trkpt>
      <trkpt lat="41.3259" lon="9.26053">
        <ele>2.54</ele>
        <time>2017-10-10T10:19:52Z</time>
      </trkpt>
      <trkpt lat="41.3255" lon="9.26022">
        <ele>1.58</ele>
        <time>2017-10-10T10:20:08Z</time>
      </trkpt>
      <trkpt lat="41.3251" lon="9.25989">
        <ele>1.58</ele>
        <time>2017-10-10T10:20:24Z</time>
      </trkpt>
      <trkpt lat="41.32468" lon="9.25958">
        <ele>1.58</ele>
        <time>2017-10-10T10:20:40Z</time>
      </trkpt>
      <trkpt lat="41.32432" lon="9.2593">
        <ele>1.58</ele>
        <time>2017-10-10T10:20:54Z</time>
      </trkpt>
      <trkpt lat="41.32401" lon="9.25906">
        <ele>1.58</ele>
        <time>2017-10-10T10:21:06Z</time>
      </trkpt>
      <trkpt lat="41.32358" lon="9.25873">
        <ele>1.58</ele>
        <time>2017-10-10T10:21:23Z</time>
      </trkpt>
      <trkpt lat="41.32329" lon="9.25848">
        <ele>1.58</ele>
        <time>2017-10-10T10:21:35Z</time>
      </trkpt>
      <trkpt lat="41.32298" lon="9.25823">
        <ele>1.58</ele>
        <time>2017-10-10T10:21:48Z</time>
      </trkpt>
      <trkpt lat="41.32267" lon="9.25798">
        <ele>2.06</ele>
        <time>2017-10-10T10:22:01Z</time>
      </trkpt>
      <trkpt lat="41.3223" lon="9.2577">
        <ele>2.54</ele>
        <time>2017-10-10T10:22:16Z</time>
      </trkpt>
      <trkpt lat="41.32196" lon="9.25743">
        <ele>2.54</ele>
        <time>2017-10-10T10:22:32Z</time>
      </trkpt>
      <trkpt lat="41.32166" lon="9.25718">
        <ele>2.54</ele>
        <time>2017-10-10T10:22:47Z</time>
      </trkpt>
      <trkpt lat="41.32141" lon="9.257">
        <ele>3.02</ele>
        <time>2017-10-10T10:23:00Z</time>
      </trkpt>
      <trkpt lat="41.32113" lon="9.25682">
        <ele>2.06</ele>
        <time>2017-10-10T10:23:15Z</time>
      </trkpt>
      <trkpt lat="41.3211" lon="9.25674">
        <ele>1.1</ele>
        <time>2017-10-10T10:23:20Z</time>
      </trkpt>
      <trkpt lat="41.32126" lon="9.25664">
        <ele>1.1</ele>
        <time>2017-10-10T10:23:32Z</time>
      </trkpt>
      <trkpt lat="41.32161" lon="9.25639">
        <ele>2.06</ele>
        <time>2017-10-10T10:23:48Z</time>
      </trkpt>
      <trkpt lat="41.32194" lon="9.25616">
        <ele>2.54</ele>
        <time>2017-10-10T10:24:02Z</time>
      </trkpt>
      <trkpt lat="41.32219" lon="9.25599">
        <ele>2.06</ele>
        <time>2017-10-10T10:24:14Z</time>
      </trkpt>
      <trkpt lat="41.32248" lon="9.25581">
        <ele>2.06</ele>
        <time>2017-10-10T10:24:28Z</time>
      </trkpt>
      <trkpt lat="41.32282" lon="9.25564">
        <ele>1.58</ele>
        <time>2017-10-10T10:24:45Z</time>
      </trkpt>
      <trkpt lat="41.32314" lon="9.25546">
        <ele>1.58</ele>
        <time>2017-10-10T10:25:03Z</time>
      </trkpt>
      <trkpt lat="41.32342" lon="9.25532">
        <ele>1.58</ele>
        <time>2017-10-10T10:25:19Z</time>
      </trkpt>
      <trkpt lat="41.32367" lon="9.25522">
        <ele>1.58</ele>
        <time>2017-10-10T10:25:33Z</time>
      </trkpt>
      <trkpt lat="41.32394" lon="9.25508">
        <ele>1.1</ele>
        <time>2017-10-10T10:25:47Z</time>
      </trkpt>
      <trkpt lat="41.32431" lon="9.25486">
        <ele>1.1</ele>
        <time>2017-10-10T10:26:04Z</time>
      </trkpt>
      <trkpt lat="41.32464" lon="9.25464">
        <ele>1.1</ele>
        <time>2017-10-10T10:26:18Z</time>
      </trkpt>
      <trkpt lat="41.32494" lon="9.25445">
        <ele>0.14</ele>
        <time>2017-10-10T10:26:31Z</time>
      </trkpt>
      <trkpt lat="41.32525" lon="9.25437">
        <ele>0.62</ele>
        <time>2017-10-10T10:26:44Z</time>
      </trkpt>
      <trkpt lat="41.32557" lon="9.25429">
        <ele>1.1</ele>
        <time>2017-10-10T10:26:57Z</time>
      </trkpt>
      <trkpt lat="41.32595" lon="9.25415">
        <ele>1.58</ele>
        <time>2017-10-10T10:27:13Z</time>
      </trkpt>
      <trkpt lat="41.32631" lon="9.25401">
        <ele>1.58</ele>
        <time>2017-10-10T10:27:30Z</time>
      </trkpt>
      <trkpt lat="41.32668" lon="9.25383">
        <ele>1.1</ele>
        <time>2017-10-10T10:27:45Z</time>
      </trkpt>
      <trkpt lat="41.32708" lon="9.25362">
        <ele>1.1</ele>
        <time>2017-10-10T10:28:00Z</time>
      </trkpt>
      <trkpt lat="41.32747" lon="9.2534">
        <ele>1.58</ele>
        <time>2017-10-10T10:28:15Z</time>
      </trkpt>
      <trkpt lat="41.32796" lon="9.25321">
        <ele>0.62</ele>
        <time>2017-10-10T10:28:34Z</time>
      </trkpt>
      <trkpt lat="41.32836" lon="9.253">
        <ele>0.62</ele>
        <time>2017-10-10T10:28:49Z</time>
      </trkpt>
      <trkpt lat="41.32867" lon="9.25284">
        <ele>1.1</ele>
        <time>2017-10-10T10:29:01Z</time>
      </trkpt>
      <trkpt lat="41.32913" lon="9.25258">
        <ele>0.14</ele>
        <time>2017-10-10T10:29:18Z</time>
      </trkpt>
      <trkpt lat="41.32942" lon="9.25239">
        <ele>0.14</ele>
        <time>2017-10-10T10:29:32Z</time>
      </trkpt>
      <trkpt lat="41.32967" lon="9.25226">
        <ele>-0.34</ele>
        <time>2017-10-10T10:29:47Z</time>
      </trkpt>
      <trkpt lat="41.32993" lon="9.25215">
        <ele>-0.82</ele>
        <time>2017-10-10T10:30:03Z</time>
      </trkpt>
      <trkpt lat="41.33015" lon="9.25201">
        <ele>-0.34</ele>
        <time>2017-10-10T10:30:18Z</time>
      </trkpt>
      <trkpt lat="41.33035" lon="9.25192">
        <ele>0.14</ele>
        <time>2017-10-10T10:30:30Z</time>
      </trkpt>
      <trkpt lat="41.33062" lon="9.2518">
        <ele>-0.34</ele>
        <time>2017-10-10T10:30:46Z</time>
      </trkpt>
      <trkpt lat="41.33081" lon="9.25167">
        <ele>0.14</ele>
        <time>2017-10-10T10:30:58Z</time>
      </trkpt>
      <trkpt lat="41.33087" lon="9.25145">
        <ele>0.14</ele>
        <time>2017-10-10T10:31:12Z</time>
      </trkpt>
      <trkpt lat="41.33091" lon="9.25119">
        <ele>0.14</ele>
        <time>2017-10-10T10:31:33Z</time>
      </trkpt>
      <trkpt lat="41.33099" lon="9.25101">
        <ele>-0.34</ele>
        <time>2017-10-10T10:31:49Z</time>
      </trkpt>
      <trkpt lat="41.33101" lon="9.25101">
        <ele>0.14</ele>
        <time>2017-10-10T10:31:51Z</time>
      </trkpt>
      <trkpt lat="41.33107" lon="9.25103">
        <ele>1.1</ele>
        <time>2017-10-10T10:31:57Z</time>
      </trkpt>
      <trkpt lat="41.33113" lon="9.25105">
        <ele>1.58</ele>
        <time>2017-10-10T10:32:02Z</time>
      </trkpt>
      <trkpt lat="41.33124" lon="9.25106">
        <ele>0.62</ele>
        <time>2017-10-10T10:32:11Z</time>
      </trkpt>
      <trkpt lat="41.33134" lon="9.25106">
        <ele>0.62</ele>
        <time>2017-10-10T10:32:20Z</time>
      </trkpt>
      <trkpt lat="41.33151" lon="9.25105">
        <ele>1.1</ele>
        <time>2017-10-10T10:32:34Z</time>
      </trkpt>
      <trkpt lat="41.33168" lon="9.25102">
        <ele>0.14</ele>
        <time>2017-10-10T10:32:48Z</time>
      </trkpt>
      <trkpt lat="41.33173" lon="9.25101">
        <ele>0.62</ele>
        <time>2017-10-10T10:32:52Z</time>
      </trkpt>
      <trkpt lat="41.33192" lon="9.25095">
        <ele>1.1</ele>
        <time>2017-10-10T10:33:08Z</time>
      </trkpt>
      <trkpt lat="41.33211" lon="9.25091">
        <ele>0.62</ele>
        <time>2017-10-10T10:33:23Z</time>
      </trkpt>
      <trkpt lat="41.33227" lon="9.25086">
        <ele>0.62</ele>
        <time>2017-10-10T10:33:36Z</time>
      </trkpt>
      <trkpt lat="41.33235" lon="9.25084">
        <ele>0.62</ele>
        <time>2017-10-10T10:33:42Z</time>
      </trkpt>
      <trkpt lat="41.33255" lon="9.25078">
        <ele>1.58</ele>
        <time>2017-10-10T10:33:58Z</time>
      </trkpt>
      <trkpt lat="41.33274" lon="9.25072">
        <ele>0.62</ele>
        <time>2017-10-10T10:34:13Z</time>
      </trkpt>
      <trkpt lat="41.33293" lon="9.25066">
        <ele>0.62</ele>
        <time>2017-10-10T10:34:27Z</time>
      </trkpt>
      <trkpt lat="41.33315" lon="9.25059">
        <ele>0.14</ele>
        <time>2017-10-10T10:34:41Z</time>
      </trkpt>
      <trkpt lat="41.33317" lon="9.25059">
        <ele>0.14</ele>
        <time>2017-10-10T10:34:42Z</time>
      </trkpt>
      <trkpt lat="41.33328" lon="9.25054">
        <ele>-0.34</ele>
        <time>2017-10-10T10:34:49Z</time>
      </trkpt>
      <trkpt lat="41.33359" lon="9.25043">
        <ele>-0.82</ele>
        <time>2017-10-10T10:35:07Z</time>
      </trkpt>
      <trkpt lat="41.33388" lon="9.25029">
        <ele>-0.82</ele>
        <time>2017-10-10T10:35:23Z</time>
      </trkpt>
      <trkpt lat="41.33415" lon="9.2502">
        <ele>-1.3</ele>
        <time>2017-10-10T10:35:38Z</time>
      </trkpt>
      <trkpt lat="41.33419" lon="9.25017">
        <ele>-1.3</ele>
        <time>2017-10-10T10:35:41Z</time>
      </trkpt>
      <trkpt lat="41.33426" lon="9.25016">
        <ele>-0.82</ele>
        <time>2017-10-10T10:35:45Z</time>
      </trkpt>
      <trkpt lat="41.33454" lon="9.25026">
        <ele>-0.34</ele>
        <time>2017-10-10T10:36:01Z</time>
      </trkpt>
      <trkpt lat="41.33477" lon="9.25033">
        <ele>0.14</ele>
        <time>2017-10-10T10:36:13Z</time>
      </trkpt>
      <trkpt lat="41.33486" lon="9.25036">
        <ele>0.14</ele>
        <time>2017-10-10T10:36:18Z</time>
      </trkpt>
      <trkpt lat="41.33516" lon="9.25056">
        <ele>1.58</ele>
        <time>2017-10-10T10:36:34Z</time>
      </trkpt>
      <trkpt lat="41.33543" lon="9.25075">
        <ele>1.58</ele>
        <time>2017-10-10T10:36:49Z</time>
      </trkpt>
      <trkpt lat="41.33583" lon="9.25102">
        <ele>2.06</ele>
        <time>2017-10-10T10:37:11Z</time>
      </trkpt>
      <trkpt lat="41.33617" lon="9.25124">
        <ele>2.06</ele>
        <time>2017-10-10T10:37:29Z</time>
      </trkpt>
      <trkpt lat="41.33651" lon="9.2514">
        <ele>2.06</ele>
        <time>2017-10-10T10:37:46Z</time>
      </trkpt>
      <trkpt lat="41.33684" lon="9.25158">
        <ele>1.58</ele>
        <time>2017-10-10T10:38:03Z</time>
      </trkpt>
      <trkpt lat="41.33716" lon="9.25173">
        <ele>1.1</ele>
        <time>2017-10-10T10:38:20Z</time>
      </trkpt>
      <trkpt lat="41.33746" lon="9.25186">
        <ele>1.58</ele>
        <time>2017-10-10T10:38:40Z</time>
      </trkpt>
      <trkpt lat="41.33768" lon="9.25195">
        <ele>1.58</ele>
        <time>2017-10-10T10:38:57Z</time>
      </trkpt>
      <trkpt lat="41.33794" lon="9.25206">
        <ele>2.54</ele>
        <time>2017-10-10T10:39:18Z</time>
      </trkpt>
      <trkpt lat="41.3382" lon="9.2521">
        <ele>2.06</ele>
        <time>2017-10-10T10:39:40Z</time>
      </trkpt>
      <trkpt lat="41.33838" lon="9.25202">
        <ele>1.1</ele>
        <time>2017-10-10T10:39:58Z</time>
      </trkpt>
      <trkpt lat="41.33853" lon="9.25185">
        <ele>1.1</ele>
        <time>2017-10-10T10:40:18Z</time>
      </trkpt>
      <trkpt lat="41.33862" lon="9.25159">
        <ele>0.14</ele>
        <time>2017-10-10T10:40:44Z</time>
      </trkpt>
      <trkpt lat="41.33864" lon="9.25147">
        <ele>2.06</ele>
        <time>2017-10-10T10:41:08Z</time>
      </trkpt>
      <trkpt lat="41.33869" lon="9.25132">
        <ele>2.54</ele>
        <time>2017-10-10T10:41:35Z</time>
      </trkpt>
      <trkpt lat="41.33867" lon="9.25128">
        <ele>2.06</ele>
        <time>2017-10-10T10:42:02Z</time>
      </trkpt>
      <trkpt lat="41.33866" lon="9.2513">
        <ele>1.1</ele>
        <time>2017-10-10T10:42:25Z</time>
      </trkpt>
      <trkpt lat="41.33862" lon="9.25145">
        <ele>0.14</ele>
        <time>2017-10-10T10:42:56Z</time>
      </trkpt>
      <trkpt lat="41.33857" lon="9.25156">
        <ele>-0.82</ele>
        <time>2017-10-10T10:43:20Z</time>
      </trkpt>
      <trkpt lat="41.33853" lon="9.25169">
        <ele>-0.82</ele>
        <time>2017-10-10T10:43:42Z</time>
      </trkpt>
      <trkpt lat="41.33855" lon="9.25169">
        <ele>1.1</ele>
        <time>2017-10-10T10:44:04Z</time>
      </trkpt>
      <trkpt lat="41.33867" lon="9.25179">
        <ele>1.1</ele>
        <time>2017-10-10T10:44:23Z</time>
      </trkpt>
      <trkpt lat="41.33881" lon="9.25178">
        <ele>1.1</ele>
        <time>2017-10-10T10:44:43Z</time>
      </trkpt>
      <trkpt lat="41.33895" lon="9.25177">
        <ele>0.14</ele>
        <time>2017-10-10T10:45:07Z</time>
      </trkpt>
      <trkpt lat="41.33901" lon="9.25163">
        <ele>0.62</ele>
        <time>2017-10-10T10:45:31Z</time>
      </trkpt>
      <trkpt lat="41.33894" lon="9.25154">
        <ele>2.06</ele>
        <time>2017-10-10T10:45:57Z</time>
      </trkpt>
      <trkpt lat="41.33891" lon="9.25148">
        <ele>2.54</ele>
        <time>2017-10-10T10:46:26Z</time>
      </trkpt>
      <trkpt lat="41.3389" lon="9.25146">
        <ele>2.54</ele>
        <time>2017-10-10T10:46:54Z</time>
      </trkpt>
      <trkpt lat="41.3389" lon="9.2515">
        <ele>2.06</ele>
        <time>2017-10-10T10:47:19Z</time>
      </trkpt>
      <trkpt lat="41.33891" lon="9.25169">
        <ele>1.1</ele>
        <time>2017-10-10T10:47:51Z</time>
      </trkpt>
      <trkpt lat="41.33893" lon="9.25176">
        <ele>0.62</ele>
        <time>2017-10-10T10:48:20Z</time>
      </trkpt>
      <trkpt lat="41.33894" lon="9.25176">
        <ele>2.06</ele>
        <time>2017-10-10T10:48:44Z</time>
      </trkpt>
      <trkpt lat="41.33894" lon="9.25177">
        <ele>2.06</ele>
        <time>2017-10-10T10:49:13Z</time>
      </trkpt>
      <trkpt lat="41.33894" lon="9.25177">
        <ele>2.06</ele>
        <time>2017-10-10T10:49:38Z</time>
      </trkpt>
      <trkpt lat="41.33893" lon="9.25178">
        <ele>2.06</ele>
        <time>2017-10-10T10:50:01Z</time>
      </trkpt>
      <trkpt lat="41.33892" lon="9.25178">
        <ele>1.58</ele>
        <time>2017-10-10T10:50:20Z</time>
      </trkpt>
      <trkpt lat="41.33892" lon="9.25177">
        <ele>1.58</ele>
        <time>2017-10-10T10:50:50Z</time>
      </trkpt>
      <trkpt lat="41.33893" lon="9.25177">
        <ele>1.58</ele>
        <time>2017-10-10T10:51:13Z</time>
      </trkpt>
      <trkpt lat="41.33893" lon="9.25176">
        <ele>1.58</ele>
        <time>2017-10-10T10:51:42Z</time>
      </trkpt>
      <trkpt lat="41.33892" lon="9.25176">
        <ele>1.1</ele>
        <time>2017-10-10T10:52:05Z</time>
      </trkpt>
      <trkpt lat="41.3389" lon="9.25178">
        <ele>1.1</ele>
        <time>2017-10-10T10:52:30Z</time>
      </trkpt>
      <trkpt lat="41.3389" lon="9.25176">
        <ele>1.1</ele>
        <time>2017-10-10T10:52:57Z</time>
      </trkpt>
      <trkpt lat="41.33892" lon="9.25175">
        <ele>0.62</ele>
        <time>2017-10-10T10:53:23Z</time>
      </trkpt>
      <trkpt lat="41.33895" lon="9.25174">
        <ele>0.14</ele>
        <time>2017-10-10T10:53:45Z</time>
      </trkpt>
      <trkpt lat="41.33896" lon="9.25174">
        <ele>0.62</ele>
        <time>2017-10-10T10:54:13Z</time>
      </trkpt>
      <trkpt lat="41.33895" lon="9.25175">
        <ele>0.62</ele>
        <time>2017-10-10T10:54:35Z</time>
      </trkpt>
      <trkpt lat="41.33892" lon="9.25177">
        <ele>0.62</ele>
        <time>2017-10-10T10:55:00Z</time>
      </trkpt>
      <trkpt lat="41.33893" lon="9.25175">
        <ele>0.14</ele>
        <time>2017-10-10T10:55:27Z</time>
      </trkpt>
      <trkpt lat="41.33896" lon="9.25174">
        <ele>-0.34</ele>
        <time>2017-10-10T10:55:48Z</time>
      </trkpt>
      <trkpt lat="41.33898" lon="9.25173">
        <ele>-0.82</ele>
        <time>2017-10-10T10:56:09Z</time>
      </trkpt>
      <trkpt lat="41.33897" lon="9.25173">
        <ele>-0.82</ele>
        <time>2017-10-10T10:56:33Z</time>
      </trkpt>
      <trkpt lat="41.33896" lon="9.25175">
        <ele>-0.34</ele>
        <time>2017-10-10T10:56:58Z</time>
      </trkpt>
      <trkpt lat="41.33893" lon="9.25177">
        <ele>0.14</ele>
        <time>2017-10-10T10:57:23Z</time>
      </trkpt>
      <trkpt lat="41.33893" lon="9.25177">
        <ele>0.62</ele>
        <time>2017-10-10T10:57:45Z</time>
      </trkpt>
      <trkpt lat="41.33895" lon="9.25176">
        <ele>1.1</ele>
        <time>2017-10-10T10:58:13Z</time>
      </trkpt>
      <trkpt lat="41.33897" lon="9.25174">
        <ele>0.62</ele>
        <time>2017-10-10T10:58:35Z</time>
      </trkpt>
      <trkpt lat="41.33896" lon="9.25174">
        <ele>0.62</ele>
        <time>2017-10-10T10:58:59Z</time>
      </trkpt>
      <trkpt lat="41.33894" lon="9.25176">
        <ele>0.14</ele>
        <time>2017-10-10T10:59:20Z</time>
      </trkpt>
      <trkpt lat="41.33895" lon="9.25175">
        <ele>0.14</ele>
        <time>2017-10-10T10:59:52Z</time>
      </trkpt>
      <trkpt lat="41.33898" lon="9.25174">
        <ele>-0.82</ele>
        <time>2017-10-10T11:00:22Z</time>
      </trkpt>
      <trkpt lat="41.33898" lon="9.25173">
        <ele>-1.79</ele>
        <time>2017-10-10T11:00:48Z</time>
      </trkpt>
      <trkpt lat="41.33897" lon="9.25174">
        <ele>-1.3</ele>
        <time>2017-10-10T11:01:09Z</time>
      </trkpt>
      <trkpt lat="41.33894" lon="9.25176">
        <ele>-1.3</ele>
        <time>2017-10-10T11:01:32Z</time>
      </trkpt>
      <trkpt lat="41.3389" lon="9.25178">
        <ele>0.62</ele>
        <time>2017-10-10T11:01:58Z</time>
      </trkpt>
      <trkpt lat="41.33891" lon="9.25177">
        <ele>0.14</ele>
        <time>2017-10-10T11:02:24Z</time>
      </trkpt>
      <trkpt lat="41.33893" lon="9.25176">
        <ele>0.62</ele>
        <time>2017-10-10T11:02:47Z</time>
      </trkpt>
      <trkpt lat="41.33894" lon="9.25176">
        <ele>0.62</ele>
        <time>2017-10-10T11:03:12Z</time>
      </trkpt>
      <trkpt lat="41.33894" lon="9.25176">
        <ele>0.14</ele>
        <time>2017-10-10T11:03:39Z</time>
      </trkpt>
      <trkpt lat="41.33892" lon="9.25177">
        <ele>0.62</ele>
        <time>2017-10-10T11:03:57Z</time>
      </trkpt>
      <trkpt lat="41.33891" lon="9.25178">
        <ele>1.58</ele>
        <time>2017-10-10T11:04:19Z</time>
      </trkpt>
      <trkpt lat="41.33891" lon="9.25177">
        <ele>1.1</ele>
        <time>2017-10-10T11:04:40Z</time>
      </trkpt>
      <trkpt lat="41.33894" lon="9.25175">
        <ele>1.1</ele>
        <time>2017-10-10T11:05:08Z</time>
      </trkpt>
      <trkpt lat="41.33895" lon="9.25174">
        <ele>-0.34</ele>
        <time>2017-10-10T11:05:31Z</time>
      </trkpt>
      <trkpt lat="41.33895" lon="9.25175">
        <ele>0.14</ele>
        <time>2017-10-10T11:05:52Z</time>
      </trkpt>
      <trkpt lat="41.33892" lon="9.25177">
        <ele>0.14</ele>
        <time>2017-10-10T11:06:15Z</time>
      </trkpt>
      <trkpt lat="41.33891" lon="9.25178">
        <ele>1.1</ele>
        <time>2017-10-10T11:06:37Z</time>
      </trkpt>
      <trkpt lat="41.33894" lon="9.25176">
        <ele>0.62</ele>
        <time>2017-10-10T11:07:04Z</time>
      </trkpt>
      <trkpt lat="41.33897" lon="9.25174">
        <ele>0.62</ele>
        <time>2017-10-10T11:07:27Z</time>
      </trkpt>
      <trkpt lat="41.33899" lon="9.25172">
        <ele>0.14</ele>
        <time>2017-10-10T11:07:49Z</time>
      </trkpt>
      <trkpt lat="41.33898" lon="9.25174">
        <ele>-0.34</ele>
        <time>2017-10-10T11:08:11Z</time>
      </trkpt>
      <trkpt lat="41.33897" lon="9.25175">
        <ele>-0.34</ele>
        <time>2017-10-10T11:08:33Z</time>
      </trkpt>
      <trkpt lat="41.33895" lon="9.25177">
        <ele>0.14</ele>
        <time>2017-10-10T11:08:56Z</time>
      </trkpt>
      <trkpt lat="41.33897" lon="9.25174">
        <ele>0.14</ele>
        <time>2017-10-10T11:09:25Z</time>
      </trkpt>
      <trkpt lat="41.339" lon="9.25172">
        <ele>-0.34</ele>
        <time>2017-10-10T11:09:47Z</time>
      </trkpt>
      <trkpt lat="41.339" lon="9.25172">
        <ele>-1.3</ele>
        <time>2017-10-10T11:10:18Z</time>
      </trkpt>
      <trkpt lat="41.33897" lon="9.25174">
        <ele>-1.3</ele>
        <time>2017-10-10T11:10:45Z</time>
      </trkpt>
      <trkpt lat="41.33894" lon="9.25176">
        <ele>-1.79</ele>
        <time>2017-10-10T11:11:05Z</time>
      </trkpt>
      <trkpt lat="41.33893" lon="9.25178">
        <ele>-1.3</ele>
        <time>2017-10-10T11:11:29Z</time>
      </trkpt>
      <trkpt lat="41.33893" lon="9.25177">
        <ele>-1.3</ele>
        <time>2017-10-10T11:11:37Z</time>
      </trkpt>
    </trkseg>
  </trk>
</gpx>